createdAt,value
2023-04-25T00:02:23.730Z,14.82
2023-04-25T00:07:27.287Z,18.75
2023-04-25T00:12:30.524Z,15.00
2023-04-25T00:17:35.781Z,21.05
2023-04-25T00:22:39.217Z,14.10
2023-04-25T00:27:42.835Z,15.63
2023-04-25T00:32:47.103Z,19.17
2023-04-25T00:37:50.567Z,8.30
2023-04-25T00:42:55.016Z,20.70
2023-04-25T00:47:59.361Z,17.90
2023-04-25T00:53:02.775Z,23.23
2023-04-25T00:58:05.799Z,28.80
2023-04-25T01:03:11.191Z,16.60
2023-04-25T01:08:14.844Z,23.52
2023-04-25T01:13:17.648Z,18.85
2023-04-25T01:18:21.950Z,12.18
2023-04-25T01:23:26.548Z,27.65
2023-04-25T01:28:29.938Z,16.05
2023-04-25T01:33:32.798Z,22.08
2023-04-25T01:38:37.131Z,27.67
2023-04-25T01:43:40.321Z,29.25
2023-04-25T01:48:43.157Z,27.25
2023-04-25T01:53:47.988Z,20.73
2023-04-25T01:58:51.256Z,22.70
2023-04-25T02:03:56.962Z,24.13
2023-04-25T02:09:10.853Z,16.52
2023-04-25T02:14:18.861Z,13.77
2023-04-25T02:19:41.881Z,12.25
2023-04-25T02:24:46.076Z,12.80
2023-04-25T02:29:48.935Z,18.80
2023-04-25T02:34:51.733Z,16.17
2023-04-25T02:39:55.981Z,19.17
2023-04-25T02:44:58.922Z,18.58
2023-04-25T02:50:03.233Z,19.38
2023-04-25T02:55:08.422Z,17.05
2023-04-25T03:00:15.252Z,17.58
2023-04-25T03:05:18.731Z,21.35
2023-04-25T03:10:22.933Z,26.38
2023-04-25T03:15:26.298Z,33.25
2023-04-25T03:20:29.379Z,25.63
2023-04-25T03:25:33.572Z,26.20
2023-04-25T03:30:36.350Z,30.95
2023-04-25T03:35:39.647Z,39.40
2023-04-25T03:40:44.726Z,27.17
2023-04-25T03:45:55.909Z,32.92
2023-04-25T03:51:00.241Z,45.65
2023-04-25T03:56:04.787Z,23.75
2023-04-25T04:01:10.616Z,28.20
2023-04-25T04:06:15.931Z,21.42
2023-04-25T04:11:25.050Z,26.10
2023-04-25T04:16:28.215Z,28.77
2023-04-25T04:21:31.252Z,28.33
2023-04-25T04:26:35.758Z,32.05
2023-04-25T04:32:05.805Z,29.05
2023-04-25T04:37:10.704Z,24.10
2023-04-25T04:42:15.015Z,30.13
2023-04-25T04:47:31.847Z,24.23
2023-04-25T04:52:51.858Z,30.70
2023-04-25T04:58:22.218Z,20.02
2023-04-25T05:03:34.553Z,28.77
2023-04-25T05:09:04.368Z,23.58
2023-04-25T05:14:21.278Z,25.70
2023-04-25T05:19:59.401Z,33.03
2023-04-25T05:25:31.534Z,27.35
2023-04-25T05:31:05.477Z,29.85
2023-04-25T05:36:20.602Z,23.55
2023-04-25T05:41:24.033Z,23.15
2023-04-25T05:46:46.545Z,31.67
2023-04-25T05:51:49.284Z,19.13
2023-04-25T05:57:05.064Z,32.72
2023-04-25T06:02:09.989Z,23.33
2023-04-25T06:07:15.007Z,21.77
2023-04-25T06:12:17.814Z,16.00
2023-04-25T06:17:22.758Z,23.73
2023-04-25T06:22:27.272Z,24.02
2023-04-25T06:27:30.144Z,25.35
2023-04-25T06:32:35.338Z,20.30
2023-04-25T06:37:38.264Z,25.10
2023-04-25T06:42:41.102Z,12.88
2023-04-25T06:48:23.726Z,23.67
2023-04-25T06:53:27.446Z,27.50
2023-04-25T06:58:35.785Z,24.33
2023-04-25T07:04:03.162Z,22.45
2023-04-25T07:09:09.731Z,19.30
2023-04-25T07:14:12.671Z,18.60
2023-04-25T07:19:19.013Z,24.13
2023-04-25T07:24:21.990Z,18.40
2023-04-25T07:29:26.766Z,13.18
2023-04-25T07:34:31.335Z,14.38
2023-04-25T07:39:34.727Z,14.52
2023-04-25T07:44:39.718Z,7.90
2023-04-25T07:49:46.174Z,20.20
2023-04-25T07:54:49.508Z,9.38
2023-04-25T07:59:57.698Z,20.13
2023-04-25T08:05:03.753Z,12.65
2023-04-25T08:10:08.307Z,15.35
2023-04-25T08:15:11.948Z,13.90
2023-04-25T08:20:18.068Z,9.40
2023-04-25T08:25:22.324Z,15.60
2023-04-25T08:30:25.425Z,9.32
2023-04-25T08:35:30.258Z,11.05
2023-04-25T08:40:39.428Z,13.68
2023-04-25T08:45:47.086Z,12.02
2023-04-25T08:56:21.309Z,13.40
2023-04-25T09:01:24.665Z,8.90
2023-04-25T09:06:32.867Z,8.45
2023-04-25T09:11:36.855Z,18.08
2023-04-25T09:17:01.291Z,11.40
2023-04-25T09:22:26.276Z,9.27
2023-04-25T09:27:29.436Z,7.85
2023-04-25T09:32:49.815Z,13.32
2023-04-25T09:37:54.268Z,7.05
2023-04-25T09:43:21.840Z,9.40
2023-04-25T09:48:28.338Z,7.00
2023-04-25T09:53:36.317Z,8.35
2023-04-25T09:58:58.409Z,4.90
2023-04-25T10:04:03.583Z,11.77
2023-04-25T10:09:36.050Z,7.15
2023-04-25T10:14:38.911Z,5.75
2023-04-25T10:19:41.980Z,9.13
2023-04-25T10:24:48.344Z,7.75
2023-04-25T10:30:03.506Z,6.40
2023-04-25T10:35:14.250Z,5.95
2023-04-25T10:40:24.069Z,6.97
2023-04-25T10:45:27.948Z,5.38
2023-04-25T10:50:39.946Z,5.00
2023-04-25T10:55:53.505Z,5.33
2023-04-25T11:00:57.876Z,7.70
2023-04-25T11:06:03.047Z,5.53
2023-04-25T11:11:07.501Z,6.88
2023-04-25T11:16:12.986Z,8.18
2023-04-25T11:21:16.604Z,5.65
2023-04-25T11:26:21.289Z,8.02
2023-04-25T11:31:24.226Z,7.78
2023-04-25T11:36:27.956Z,8.77
2023-04-25T11:41:32.740Z,8.13
2023-04-25T11:46:36.637Z,7.07
2023-04-25T11:51:44.162Z,5.72
2023-04-25T11:56:48.517Z,6.80
2023-04-25T12:01:52.337Z,7.20
2023-04-25T12:06:57.015Z,5.85
2023-04-25T12:12:04.085Z,10.98
2023-04-25T12:17:09.172Z,2.70
2023-04-25T12:22:23.593Z,3.47
2023-04-25T12:27:28.229Z,6.32
2023-04-25T12:32:31.718Z,8.20
2023-04-25T12:37:34.564Z,8.02
2023-04-25T12:42:38.718Z,9.02
2023-04-25T12:47:41.534Z,6.93
2023-04-25T12:52:44.314Z,13.63
2023-04-25T12:57:48.711Z,3.28
2023-04-25T13:02:51.682Z,5.00
2023-04-25T13:07:54.615Z,4.97
2023-04-25T13:12:59.063Z,8.15
2023-04-25T13:18:02.052Z,3.78
2023-04-25T13:23:04.894Z,5.45
2023-04-25T13:28:09.273Z,3.20
2023-04-25T13:33:26.149Z,5.75
2023-04-25T13:38:29.003Z,4.93
2023-04-25T13:43:34.887Z,1.00
2023-04-25T13:48:37.911Z,3.58
2023-04-25T13:53:40.742Z,4.82
2023-04-25T13:58:44.944Z,4.80
2023-04-25T14:03:47.825Z,5.57
2023-04-25T14:08:51.014Z,4.80
2023-04-25T14:13:55.122Z,3.45
2023-04-25T14:18:58.875Z,4.20
2023-04-25T14:24:01.773Z,4.18
2023-04-25T14:29:07.235Z,4.82
2023-04-25T14:34:10.169Z,3.00
2023-04-25T14:39:13.463Z,2.70
2023-04-25T14:44:17.739Z,7.75
2023-04-25T14:49:21.016Z,3.17
2023-04-25T14:54:23.889Z,1.95
2023-04-25T14:59:28.056Z,3.95
2023-04-25T15:04:30.972Z,7.13
2023-04-25T15:09:34.275Z,4.03
2023-04-25T15:14:38.563Z,2.95
2023-04-25T15:19:41.335Z,1.95
2023-04-25T15:24:44.136Z,2.40
2023-04-25T15:29:48.288Z,4.72
2023-04-25T15:34:51.924Z,3.67
2023-04-25T15:40:04.810Z,2.05
2023-04-25T15:45:11.280Z,3.55
2023-04-25T15:50:15.969Z,3.70
2023-04-25T15:55:21.126Z,6.05
2023-04-25T16:00:25.355Z,4.05
2023-04-25T16:05:28.373Z,2.60
2023-04-25T16:10:31.235Z,5.78
2023-04-25T16:15:35.796Z,3.45
2023-04-25T16:20:38.734Z,3.17
2023-04-25T16:25:43.014Z,4.32
2023-04-25T16:30:47.388Z,4.88
2023-04-25T16:35:52.419Z,2.47
2023-04-25T16:40:55.354Z,4.15
2023-04-25T16:45:59.490Z,7.47
2023-04-25T16:51:02.298Z,3.67
2023-04-25T16:56:05.477Z,7.82
2023-04-25T17:01:09.670Z,6.63
2023-04-25T17:06:12.482Z,6.28
2023-04-25T17:11:15.343Z,2.35
2023-04-25T17:16:23.404Z,4.47
2023-04-25T17:21:26.198Z,7.00
2023-04-25T17:26:29.145Z,4.75
2023-04-25T17:31:33.529Z,5.45
2023-04-25T17:36:36.417Z,4.30
2023-04-25T17:41:39.268Z,7.90
2023-04-25T17:46:43.652Z,4.78
2023-04-25T17:51:46.560Z,6.38
2023-04-25T17:56:49.605Z,7.35
2023-04-25T18:01:53.822Z,11.60
2023-04-25T18:06:56.753Z,4.65
2023-04-25T18:12:00.153Z,3.00
2023-04-25T18:17:07.100Z,9.07
2023-04-25T18:22:09.944Z,3.97
2023-04-25T18:27:12.744Z,6.88
2023-04-25T18:32:17.099Z,5.65
2023-04-25T18:37:20.969Z,8.35
2023-04-25T18:42:23.741Z,8.65
2023-04-25T18:47:27.955Z,6.25
2023-04-25T18:52:30.821Z,4.03
2023-04-25T18:57:34.408Z,4.20
2023-04-25T19:02:38.851Z,7.15
2023-04-25T19:07:42.273Z,5.25
2023-04-25T19:12:44.952Z,5.90
2023-04-25T19:17:49.160Z,5.93
2023-04-25T19:22:53.216Z,10.18
2023-04-25T19:27:57.296Z,7.03
2023-04-25T19:33:01.591Z,7.18
2023-04-25T19:38:04.604Z,7.45
2023-04-25T19:43:07.419Z,7.20
2023-04-25T19:48:12.351Z,10.32
2023-04-25T19:53:15.052Z,7.85
2023-04-25T19:58:17.735Z,6.18
2023-04-25T20:03:22.074Z,7.32
2023-04-25T20:08:26.143Z,6.13
2023-04-25T20:13:29.183Z,4.72
2023-04-25T20:18:33.243Z,8.40
2023-04-25T20:23:36.032Z,5.47
2023-04-25T20:28:38.849Z,8.80
2023-04-25T20:33:43.746Z,10.98
2023-04-25T20:38:46.831Z,6.75
2023-04-25T20:43:50.107Z,7.43
2023-04-25T20:48:54.524Z,10.38
2023-04-25T20:53:58.111Z,11.90
2023-04-25T20:59:00.858Z,5.13
2023-04-25T21:04:06.271Z,10.50
2023-04-25T21:09:10.031Z,9.75
2023-04-25T21:14:12.921Z,7.60
2023-04-25T21:19:17.507Z,5.65
2023-04-25T21:24:21.758Z,4.95
2023-04-25T21:29:24.521Z,9.10
2023-04-25T21:34:28.744Z,7.68
2023-04-25T21:39:31.603Z,6.10
2023-04-25T21:44:34.379Z,6.25
2023-04-25T21:49:38.496Z,6.40
2023-04-25T21:54:41.294Z,6.68
2023-04-25T21:59:44.355Z,4.55
2023-04-25T22:04:49.041Z,6.53
2023-04-25T22:09:55.505Z,9.65
2023-04-25T22:14:58.646Z,12.82
2023-04-25T22:20:09.631Z,12.30
2023-04-25T22:25:12.971Z,5.68
2023-04-25T22:30:16.307Z,8.50
2023-04-25T22:35:20.467Z,7.63
2023-04-25T22:40:23.269Z,9.45
2023-04-25T22:45:26.119Z,15.38
2023-04-25T22:50:30.368Z,8.85
2023-04-25T22:55:33.144Z,7.22
2023-04-25T23:00:35.946Z,15.77
2023-04-25T23:05:40.145Z,8.02
2023-04-25T23:10:42.924Z,5.80
2023-04-25T23:15:45.678Z,7.38
2023-04-25T23:20:49.805Z,8.80
2023-04-25T23:25:53.250Z,8.80
2023-04-25T23:30:56.156Z,12.05
2023-04-25T23:36:00.453Z,10.82
2023-04-25T23:41:03.272Z,8.18
2023-04-25T23:46:06.317Z,5.53
2023-04-25T23:51:10.561Z,10.40
2023-04-25T23:56:13.343Z,10.52
